Terminal Aerodrome Forecast
Issued by NWS

Home | Current Version | Previous Version | Text Only | Print | Product List | Glossary On
Versions: 1 2 3 4 5 6 7 8 9 10 11 12 13
000
FTUS42 TJSJ 280500
TAFJMZ
TAF
TJMZ 280520Z 2806/2906 11005KT P6SM FEW025
     FM281530 27010KT P6SM SCT020 SCT040
     FM282200 11007KT P6SM SCT030
      AMD NOT SKED TIL 281500=

USA.gov is the U.S. government's official web portal to all federal, state and local government web resources and services.